Time;durP1;ratioP1;P1;durP2;ratioP2;P2;SDS_P1;SDS_P2;PMS_P1;PMS_P2;Temp;Humidity;BMP_temperature;BMP_pressure;BME280_temperature;BME280_humidity;BME280_pressure;Samples;Min_cycle;Max_cycle;Signal;HPM_P1;HPM_P2
2023/08/08 00:01:59;;;;;;;4.50;1.48;;;13.90;99.90;;;;;;4229740;28;20050;-80
2023/08/08 00:04:00;;;;;;;5.28;1.65;;;13.90;99.90;;;;;;4231348;28;20498;-80
2023/08/08 00:06:01;;;;;;;4.38;1.77;;;13.80;99.90;;;;;;4230791;28;20044;-80
2023/08/08 00:08:01;;;;;;;8.57;2.50;;;13.00;99.90;;;;;;4230738;28;20115;-80
2023/08/08 00:10:03;;;;;;;6.40;2.25;;;13.80;99.90;;;;;;4228335;28;20050;-81
2023/08/08 00:12:04;;;;;;;7.38;1.95;;;13.80;99.90;;;;;;4229220;28;20064;-81
2023/08/08 00:14:05;;;;;;;2.88;1.73;;;13.80;99.90;;;;;;4230729;28;20048;-80
2023/08/08 00:16:05;;;;;;;8.35;2.45;;;13.80;99.90;;;;;;4229076;28;20055;-81
2023/08/08 00:18:06;;;;;;;6.28;1.73;;;13.80;99.90;;;;;;4230186;28;20054;-81
2023/08/08 00:20:08;;;;;;;5.00;1.40;;;13.80;99.90;;;;;;4212074;28;20048;-80
2023/08/08 00:22:08;;;;;;;4.80;1.90;;;13.80;99.90;;;;;;4212957;28;20056;-81
2023/08/08 00:24:09;;;;;;;3.67;1.42;;;13.80;99.90;;;;;;4234009;28;20047;-81
2023/08/08 00:26:10;;;;;;;3.28;1.30;;;13.80;99.90;;;;;;4231676;28;20270;-81
2023/08/08 00:28:11;;;;;;;6.30;1.60;;;13.80;99.90;;;;;;4233758;28;20028;-81
2023/08/08 00:30:15;;;;;;;5.75;1.55;;;13.80;99.90;;;;;;4215447;28;20048;-81
2023/08/08 00:32:16;;;;;;;3.30;1.17;;;13.80;99.90;;;;;;4233524;28;20058;-80
2023/08/08 00:34:16;;;;;;;4.18;1.20;;;13.80;99.90;;;;;;4233702;28;20502;-81
2023/08/08 00:36:17;;;;;;;9.10;2.03;;;13.80;99.90;;;;;;4233023;28;20542;-81
2023/08/08 00:38:18;;;;;;;6.78;1.65;;;13.80;99.90;;;;;;4232200;28;20052;-81
2023/08/08 00:40:19;;;;;;;4.03;1.50;;;13.80;99.90;;;;;;4233342;27;20040;-81
2023/08/08 00:42:19;;;;;;;8.18;2.53;;;13.80;99.90;;;;;;4233623;28;20400;-81
2023/08/08 00:44:20;;;;;;;2.60;1.38;;;13.80;99.90;;;;;;4232259;28;20051;-81
2023/08/08 00:46:23;;;;;;;10.15;1.70;;;13.80;99.90;;;;;;4233344;28;20088;-81
2023/08/08 00:48:25;;;;;;;6.75;1.58;;;13.80;99.90;;;;;;4233079;28;20039;-81
2023/08/08 00:50:26;;;;;;;5.03;2.00;;;13.80;99.90;;;;;;4233478;28;20047;-81
2023/08/08 00:52:27;;;;;;;6.22;2.05;;;13.80;99.90;;;;;;4232241;28;20047;-80
2023/08/08 00:54:28;;;;;;;3.78;1.50;;;13.70;99.90;;;;;;4232391;28;20108;-80
2023/08/08 00:56:29;;;;;;;7.32;1.77;;;13.70;99.90;;;;;;4232293;28;20125;-80
2023/08/08 00:58:30;;;;;;;4.95;1.92;;;13.70;99.90;;;;;;4233461;28;20039;-81
2023/08/08 01:00:32;;;;;;;8.55;1.50;;;13.70;99.90;;;;;;4240612;28;20075;-81
2023/08/08 01:02:33;;;;;;;4.53;1.65;;;13.70;99.90;;;;;;4246402;28;20039;-80
2023/08/08 01:04:33;;;;;;;4.28;1.70;;;13.70;99.90;;;;;;4237907;28;20506;-80
2023/08/08 01:07:00;;;;;;;6.32;1.60;;;13.70;99.90;;;;;;4233254;28;20101;-81
2023/08/08 01:09:21;;;;;;;6.43;2.15;;;15.10;99.90;;;;;;4232869;28;20051;-81
2023/08/08 01:11:23;;;;;;;4.50;1.90;;;13.70;99.90;;;;;;4232624;28;20087;-81
2023/08/08 01:13:27;;;;;;;3.00;2.03;;;13.70;99.90;;;;;;4231746;28;20047;-81
2023/08/08 01:15:35;;;;;;;4.47;1.42;;;13.70;99.90;;;;;;4233058;28;20123;-80
2023/08/08 01:17:37;;;;;;;6.57;1.98;;;13.70;99.90;;;;;;4232418;28;20051;-81
2023/08/08 01:19:37;;;;;;;5.47;1.60;;;13.70;99.90;;;;;;4215131;28;20055;-81
2023/08/08 01:21:40;;;;;;;6.68;1.70;;;13.70;99.90;;;;;;4232601;28;20102;-80
2023/08/08 01:23:53;;;;;;;6.50;1.30;;;13.50;99.90;;;;;;4232246;28;20126;-81
2023/08/08 01:25:54;;;;;;;4.93;1.42;;;13.70;99.90;;;;;;4231352;28;20132;-81
2023/08/08 01:27:54;;;;;;;6.43;1.50;;;13.70;99.90;;;;;;4231507;28;20056;-81
2023/08/08 01:29:55;;;;;;;4.95;1.45;;;13.60;99.90;;;;;;4214159;28;20044;-81
2023/08/08 01:31:56;;;;;;;4.68;1.50;;;13.60;99.90;;;;;;4231735;28;20055;-81
2023/08/08 01:33:56;;;;;;;4.88;1.60;;;13.60;99.90;;;;;;4230890;28;20056;-81
2023/08/08 01:36:04;;;;;;;3.00;1.63;;;13.60;99.90;;;;;;4214147;28;20500;-81
2023/08/08 01:38:28;;;;;;;3.58;1.60;;;13.60;99.90;;;;;;4231625;28;20457;-81
2023/08/08 01:40:29;;;;;;;8.07;1.92;;;13.60;99.90;;;;;;4231876;28;20093;-81
2023/08/08 01:42:30;;;;;;;6.32;2.03;;;13.60;99.90;;;;;;4231727;28;20133;-80
2023/08/08 01:44:32;;;;;;;6.25;2.38;;;13.60;99.90;;;;;;4232384;28;20426;-81
2023/08/08 01:46:34;;;;;;;5.10;1.35;;;13.70;99.90;;;;;;4232313;28;20096;-81
2023/08/08 01:48:34;;;;;;;7.38;1.70;;;13.70;99.90;;;;;;4232331;28;20380;-81
2023/08/08 01:50:36;;;;;;;6.07;1.67;;;13.70;99.90;;;;;;4232512;28;20097;-81
2023/08/08 01:52:37;;;;;;;4.60;1.60;;;13.70;99.90;;;;;;4214595;28;20044;-81
2023/08/08 01:54:38;;;;;;;9.77;1.30;;;13.70;99.90;;;;;;4232435;28;20506;-81
2023/08/08 01:56:38;;;;;;;7.40;1.55;;;13.70;99.90;;;;;;4230940;28;20078;-80
2023/08/08 01:58:39;;;;;;;4.65;1.38;;;13.80;99.90;;;;;;4231056;28;20130;-81
2023/08/08 02:00:44;;;;;;;4.00;1.23;;;13.80;99.90;;;;;;4230865;28;20044;-81
2023/08/08 02:02:45;;;;;;;5.45;1.55;;;13.80;99.90;;;;;;4232273;28;20043;-81
2023/08/08 02:04:46;;;;;;;8.98;1.98;;;13.80;99.90;;;;;;4230883;28;20078;-81
2023/08/08 02:06:46;;;;;;;6.50;1.35;;;13.90;99.90;;;;;;4232132;28;20044;-80
2023/08/08 02:08:47;;;;;;;3.83;1.77;;;13.90;99.90;;;;;;4230696;28;20101;-81
2023/08/08 02:10:48;;;;;;;7.60;1.52;;;13.90;99.90;;;;;;4232083;28;20039;-81
2023/08/08 02:12:48;;;;;;;2.40;1.30;;;13.90;99.90;;;;;;4213655;28;20048;-80
2023/08/08 02:14:49;;;;;;;5.97;1.70;;;13.90;99.90;;;;;;4230754;28;20518;-81
2023/08/08 02:16:50;;;;;;;7.57;1.77;;;14.00;99.90;;;;;;4232199;28;20039;-80
2023/08/08 02:18:50;;;;;;;8.70;1.55;;;13.90;99.90;;;;;;4214061;28;20066;-81
2023/08/08 02:20:51;;;;;;;5.15;1.70;;;14.00;99.90;;;;;;4231550;28;20035;-81
2023/08/08 02:22:52;;;;;;;4.53;1.40;;;13.90;99.90;;;;;;4232147;28;20050;-80
2023/08/08 02:24:52;;;;;;;6.75;2.17;;;14.10;99.90;;;;;;4231869;28;20114;-80
2023/08/08 02:26:54;;;;;;;9.27;2.80;;;14.00;99.90;;;;;;4231977;28;20070;-80
2023/08/08 02:28:55;;;;;;;9.13;2.15;;;14.00;99.90;;;;;;4230025;28;20101;-81
2023/08/08 02:30:55;;;;;;;1.58;1.13;;;14.00;99.90;;;;;;4231620;28;20077;-80
2023/08/08 02:32:56;;;;;;;9.27;1.58;;;14.00;99.90;;;;;;4231747;28;20048;-80
2023/08/08 02:34:57;;;;;;;7.90;1.70;;;14.00;99.90;;;;;;4231194;28;20055;-81
2023/08/08 02:36:57;;;;;;;4.82;1.48;;;14.00;99.90;;;;;;4231758;28;20047;-80
2023/08/08 02:38:58;;;;;;;5.07;1.80;;;14.00;99.90;;;;;;4231557;28;20483;-81
2023/08/08 02:40:59;;;;;;;8.07;1.60;;;14.00;99.90;;;;;;4230884;28;20369;-80
2023/08/08 02:43:00;;;;;;;4.32;1.83;;;13.90;99.90;;;;;;4231488;28;20047;-81
2023/08/08 02:45:00;;;;;;;6.53;1.67;;;13.90;99.90;;;;;;4231241;28;20050;-81
2023/08/08 02:47:01;;;;;;;5.35;1.70;;;13.90;99.90;;;;;;4229365;28;20507;-81
2023/08/08 02:49:02;;;;;;;5.05;1.38;;;13.90;99.90;;;;;;4231660;28;20381;-80
2023/08/08 02:51:02;;;;;;;5.93;1.70;;;13.90;99.90;;;;;;4230171;28;20465;-80
2023/08/08 02:53:03;;;;;;;6.40;1.67;;;13.90;99.90;;;;;;4230990;28;20047;-81
2023/08/08 02:55:05;;;;;;;12.32;1.48;;;13.80;99.90;;;;;;4231359;28;20404;-81
2023/08/08 02:57:05;;;;;;;5.78;1.65;;;13.90;99.90;;;;;;4231815;28;20455;-80
2023/08/08 02:59:06;;;;;;;6.97;1.70;;;13.80;99.90;;;;;;4230568;28;20055;-81
2023/08/08 03:01:07;;;;;;;7.93;1.48;;;13.80;99.90;;;;;;4229935;28;20131;-81
2023/08/08 03:03:08;;;;;;;4.47;2.13;;;13.80;99.90;;;;;;4230486;28;20448;-80
2023/08/08 03:05:09;;;;;;;8.88;1.60;;;13.80;99.90;;;;;;4229910;28;20173;-80
2023/08/08 03:07:09;;;;;;;5.40;1.55;;;13.80;99.90;;;;;;4230019;28;20454;-81
2023/08/08 03:09:10;;;;;;;7.30;2.80;;;13.70;99.90;;;;;;4231594;28;20050;-81
2023/08/08 03:11:11;;;;;;;3.55;1.48;;;13.80;99.90;;;;;;4230056;28;20112;-81
2023/08/08 03:13:12;;;;;;;4.95;1.67;;;13.80;99.90;;;;;;4229897;28;20099;-81
2023/08/08 03:15:13;;;;;;;6.95;1.50;;;13.70;99.90;;;;;;4230965;28;20507;-81
2023/08/08 03:17:14;;;;;;;4.20;1.70;;;13.70;99.90;;;;;;4231429;28;20048;-81
2023/08/08 03:19:17;;;;;;;6.63;1.48;;;13.70;99.90;;;;;;4230705;28;20141;-81
2023/08/08 03:21:18;;;;;;;3.65;1.60;;;13.70;99.90;;;;;;4229396;28;20043;-81
2023/08/08 03:23:19;;;;;;;6.00;1.40;;;13.70;99.90;;;;;;4229927;28;20510;-80
2023/08/08 03:25:19;;;;;;;4.85;1.50;;;13.70;99.90;;;;;;4229824;28;20049;-80
2023/08/08 03:27:20;;;;;;;2.30;1.40;;;13.60;99.90;;;;;;4236220;28;20050;-81
2023/08/08 03:29:21;;;;;;;4.30;1.30;;;13.70;99.90;;;;;;4239155;28;20101;-80
2023/08/08 03:31:22;;;;;;;3.53;1.48;;;13.60;99.90;;;;;;4239478;28;20507;-81
2023/08/08 03:33:22;;;;;;;4.15;1.40;;;13.60;99.90;;;;;;4240144;28;20130;-81
2023/08/08 03:35:23;;;;;;;3.08;1.20;;;13.60;99.90;;;;;;4237922;28;20051;-81
2023/08/08 03:37:24;;;;;;;7.07;1.40;;;13.60;99.90;;;;;;4237753;28;20044;-80
2023/08/08 03:39:24;;;;;;;3.97;1.23;;;13.60;99.90;;;;;;4240836;28;20035;-80
2023/08/08 03:41:25;;;;;;;10.13;1.92;;;13.60;99.90;;;;;;4235041;28;20353;-81
2023/08/08 03:43:25;;;;;;;3.22;0.90;;;13.50;99.90;;;;;;4230916;28;20160;-81
2023/08/08 03:45:27;;;;;;;4.15;1.60;;;13.50;99.90;;;;;;4212422;28;20491;-80
2023/08/08 03:47:28;;;;;;;5.15;1.30;;;13.50;99.90;;;;;;4230585;28;20040;-81
2023/08/08 03:49:28;;;;;;;5.63;1.27;;;13.50;99.90;;;;;;4229640;28;20077;-81
2023/08/08 03:51:30;;;;;;;6.63;1.27;;;13.40;99.90;;;;;;4229287;28;20047;-81
2023/08/08 03:53:31;;;;;;;3.67;1.30;;;13.50;99.90;;;;;;4229607;28;20036;-80
2023/08/08 03:55:33;;;;;;;2.53;1.02;;;13.50;99.90;;;;;;4230085;28;20111;-81
2023/08/08 03:57:33;;;;;;;4.45;1.05;;;13.40;99.90;;;;;;4228901;28;20039;-81
2023/08/08 03:59:34;;;;;;;3.28;0.93;;;13.40;99.90;;;;;;4230613;28;20450;-81
2023/08/08 04:01:35;;;;;;;2.40;1.42;;;13.40;99.90;;;;;;4212299;28;20047;-81
2023/08/08 04:03:36;;;;;;;3.85;1.13;;;13.40;99.90;;;;;;4230896;28;20126;-80
2023/08/08 04:05:37;;;;;;;4.72;1.00;;;13.40;99.90;;;;;;4229382;28;20491;-81
2023/08/08 04:07:39;;;;;;;3.95;1.27;;;13.40;99.90;;;;;;4228849;28;20105;-81
2023/08/08 04:09:39;;;;;;;4.32;1.30;;;13.40;99.90;;;;;;4212909;28;20168;-81
2023/08/08 04:11:40;;;;;;;2.45;0.73;;;13.40;99.90;;;;;;4230593;28;20043;-81
2023/08/08 04:13:42;;;;;;;3.90;0.90;;;13.40;99.90;;;;;;4230724;28;20553;-81
2023/08/08 04:15:43;;;;;;;1.83;0.98;;;13.40;99.90;;;;;;4229224;28;20059;-81
2023/08/08 04:17:44;;;;;;;2.90;1.10;;;13.40;99.90;;;;;;4230630;28;20106;-81
2023/08/08 04:19:45;;;;;;;5.55;1.10;;;13.30;99.90;;;;;;4229059;28;20055;-81
2023/08/08 04:21:45;;;;;;;4.13;0.80;;;13.30;99.90;;;;;;4230346;28;20040;-81
2023/08/08 04:23:46;;;;;;;2.38;0.98;;;13.30;99.90;;;;;;4228658;28;20112;-81
2023/08/08 04:25:47;;;;;;;7.07;1.73;;;13.30;99.90;;;;;;4230281;28;20135;-81
2023/08/08 04:27:48;;;;;;;4.75;1.35;;;13.40;99.90;;;;;;4229146;28;20043;-80
2023/08/08 04:29:48;;;;;;;4.75;1.10;;;13.40;99.90;;;;;;4229288;28;20055;-81
2023/08/08 04:31:49;;;;;;;5.78;0.80;;;13.40;99.90;;;;;;4229439;28;20044;-81
2023/08/08 04:33:50;;;;;;;3.38;0.90;;;13.30;99.90;;;;;;4230013;28;20039;-80
2023/08/08 04:35:50;;;;;;;2.28;0.85;;;13.30;99.90;;;;;;4228984;28;20044;-81
2023/08/08 04:37:51;;;;;;;5.40;1.05;;;13.40;99.90;;;;;;4230368;28;20044;-81
2023/08/08 04:39:52;;;;;;;2.58;0.82;;;13.40;99.90;;;;;;4228942;28;20078;-81
2023/08/08 04:41:53;;;;;;;3.22;0.88;;;13.40;99.90;;;;;;4228788;28;20411;-81
2023/08/08 04:43:53;;;;;;;2.78;0.98;;;13.40;99.90;;;;;;4229318;28;20043;-81
2023/08/08 04:45:55;;;;;;;4.72;0.90;;;13.40;99.90;;;;;;4228742;28;20082;-81
2023/08/08 04:47:56;;;;;;;4.15;1.00;;;13.40;99.90;;;;;;4229569;28;20056;-81
2023/08/08 04:49:56;;;;;;;8.50;1.60;;;13.40;99.90;;;;;;4211886;28;20052;-81
2023/08/08 04:51:57;;;;;;;1.58;0.65;;;13.40;99.90;;;;;;4228806;28;20097;-81
2023/08/08 04:53:58;;;;;;;4.18;0.90;;;13.50;99.90;;;;;;4230254;28;20042;-81
2023/08/08 04:55:58;;;;;;;3.17;0.75;;;13.50;99.90;;;;;;4228652;28;20412;-81
2023/08/08 04:58:00;;;;;;;3.38;1.13;;;13.60;99.90;;;;;;4228223;28;20428;-81
2023/08/08 05:00:05;;;;;;;7.80;2.65;;;13.60;99.90;;;;;;4229999;28;20456;-81
2023/08/08 05:02:05;;;;;;;4.03;0.93;;;13.70;99.90;;;;;;4230290;28;20032;-81
2023/08/08 05:04:06;;;;;;;5.43;1.05;;;13.70;99.90;;;;;;4229934;28;20047;-81
2023/08/08 05:06:07;;;;;;;7.32;1.42;;;13.70;99.90;;;;;;4229765;28;20031;-81
2023/08/08 05:08:07;;;;;;;2.40;0.90;;;13.80;99.90;;;;;;4211720;28;20101;-80
2023/08/08 05:10:08;;;;;;;5.85;2.17;;;13.80;99.90;;;;;;4231654;28;20051;-81
2023/08/08 05:12:09;;;;;;;2.42;1.00;;;13.80;99.90;;;;;;4232817;28;20047;-80
2023/08/08 05:14:09;;;;;;;3.08;0.80;;;13.80;99.90;;;;;;4233012;28;20040;-80
2023/08/08 05:16:10;;;;;;;3.80;0.60;;;13.80;99.90;;;;;;4232696;28;20035;-81
2023/08/08 05:18:11;;;;;;;3.65;1.00;;;13.90;99.90;;;;;;4231739;28;20039;-80
2023/08/08 05:20:12;;;;;;;1.73;1.05;;;13.90;99.90;;;;;;4232584;28;20054;-80
2023/08/08 05:22:13;;;;;;;5.65;1.00;;;13.90;99.90;;;;;;4232659;28;20058;-81
2023/08/08 05:24:13;;;;;;;3.05;1.17;;;13.90;99.90;;;;;;4233346;28;20094;-80
2023/08/08 05:26:15;;;;;;;3.45;0.80;;;14.00;99.90;;;;;;4231599;28;20112;-80
2023/08/08 05:28:15;;;;;;;4.80;1.00;;;14.00;99.90;;;;;;4232821;28;20043;-81
2023/08/08 05:30:16;;;;;;;4.90;1.15;;;14.00;99.90;;;;;;4231136;28;20120;-80
2023/08/08 05:32:17;;;;;;;5.18;1.42;;;14.10;99.90;;;;;;4231556;28;20059;-81
2023/08/08 05:34:17;;;;;;;3.67;0.80;;;14.20;99.90;;;;;;4214035;28;20574;-81
2023/08/08 05:36:18;;;;;;;2.63;0.90;;;14.20;99.90;;;;;;4232588;28;20079;-81
2023/08/08 05:38:19;;;;;;;5.50;1.10;;;14.20;99.90;;;;;;4231463;28;20055;-81
2023/08/08 05:40:19;;;;;;;7.40;1.10;;;14.30;99.90;;;;;;4231303;28;20051;-81
2023/08/08 05:42:20;;;;;;;3.95;1.08;;;14.30;99.90;;;;;;4232727;28;20040;-81
2023/08/08 05:44:21;;;;;;;2.47;1.10;;;14.30;99.90;;;;;;4231138;28;20159;-81
2023/08/08 05:46:21;;;;;;;8.02;1.13;;;14.30;99.90;;;;;;4232212;28;20145;-81
2023/08/08 05:48:22;;;;;;;4.63;0.80;;;14.20;99.90;;;;;;4231335;28;20473;-80
2023/08/08 05:50:23;;;;;;;3.15;1.20;;;14.20;99.90;;;;;;4214055;28;20586;-80
2023/08/08 05:52:23;;;;;;;3.28;0.95;;;14.20;99.90;;;;;;4231500;28;20094;-80
2023/08/08 05:54:24;;;;;;;4.82;0.90;;;14.20;99.90;;;;;;4232747;28;20109;-81
2023/08/08 05:56:25;;;;;;;6.28;1.92;;;14.20;99.90;;;;;;4232064;28;20044;-81
2023/08/08 05:58:25;;;;;;;4.57;0.90;;;14.20;99.90;;;;;;4231039;28;20047;-81
2023/08/08 06:00:26;;;;;;;7.43;0.90;;;14.20;99.90;;;;;;4230116;28;20174;-81
2023/08/08 06:02:27;;;;;;;5.07;1.00;;;14.20;99.90;;;;;;4230918;28;20051;-81
2023/08/08 06:04:27;;;;;;;5.88;0.93;;;14.20;99.90;;;;;;4232319;28;20074;-81
2023/08/08 06:06:28;;;;;;;4.20;1.10;;;14.20;99.90;;;;;;4230468;28;20194;-81
2023/08/08 06:08:29;;;;;;;2.75;0.93;;;14.20;99.90;;;;;;4231219;28;20036;-80
2023/08/08 06:10:29;;;;;;;2.05;0.80;;;14.30;99.90;;;;;;4230652;28;20100;-81
2023/08/08 06:12:30;;;;;;;3.97;1.35;;;14.40;99.90;;;;;;4231687;28;20089;-81
2023/08/08 06:14:31;;;;;;;6.63;0.90;;;14.60;99.90;;;;;;4231103;28;20196;-80
2023/08/08 06:16:31;;;;;;;5.05;1.15;;;14.70;99.90;;;;;;4230751;28;20044;-80
2023/08/08 06:18:34;;;;;;;5.88;1.00;;;14.80;99.90;;;;;;4231069;28;20104;-80
2023/08/08 06:20:35;;;;;;;4.93;0.55;;;14.90;99.90;;;;;;4230270;28;20100;-81
2023/08/08 06:22:37;;;;;;;5.70;1.48;;;15.00;99.90;;;;;;4231898;28;20112;-81
2023/08/08 06:24:38;;;;;;;3.70;1.50;;;15.10;99.90;;;;;;4230709;28;20478;-80
2023/08/08 06:26:39;;;;;;;2.22;1.25;;;15.20;99.90;;;;;;4230165;28;20047;-81
2023/08/08 06:28:40;;;;;;;5.82;1.05;;;15.20;99.90;;;;;;4232220;28;20039;-81
2023/08/08 06:30:40;;;;;;;6.03;1.25;;;15.30;99.90;;;;;;4231934;28;20052;-81
2023/08/08 06:32:41;;;;;;;4.50;0.80;;;15.40;99.90;;;;;;4232180;28;20079;-80
2023/08/08 06:34:42;;;;;;;6.07;0.70;;;15.50;99.90;;;;;;4230647;28;20048;-81
2023/08/08 06:36:42;;;;;;;4.38;1.00;;;15.60;99.90;;;;;;4231152;28;20044;-81
2023/08/08 06:38:43;;;;;;;7.53;0.90;;;15.60;99.90;;;;;;4213382;28;20150;-81
2023/08/08 06:40:44;;;;;;;6.05;0.98;;;15.70;99.90;;;;;;4231440;28;20039;-81
2023/08/08 06:42:44;;;;;;;7.13;0.90;;;15.70;99.90;;;;;;4231629;28;20046;-81
2023/08/08 06:44:46;;;;;;;1.42;0.80;;;15.80;99.90;;;;;;4230232;28;20043;-81
2023/08/08 06:46:47;;;;;;;2.97;0.80;;;15.90;99.90;;;;;;4229916;28;20068;-81
2023/08/08 06:48:47;;;;;;;10.18;1.20;;;16.00;99.90;;;;;;4230076;28;20519;-80
2023/08/08 06:50:48;;;;;;;7.70;1.02;;;16.10;99.90;;;;;;4231293;28;20058;-81
2023/08/08 06:52:49;;;;;;;5.07;0.95;;;16.20;99.90;;;;;;4229765;28;20047;-81
2023/08/08 06:54:50;;;;;;;3.47;0.80;;;16.20;99.90;;;;;;4231300;28;20568;-80
2023/08/08 06:56:50;;;;;;;2.40;0.70;;;16.20;99.90;;;;;;4231495;28;20079;-80
2023/08/08 06:58:51;;;;;;;4.53;1.00;;;16.30;99.90;;;;;;4230181;28;20051;-80
2023/08/08 07:00:52;;;;;;;4.38;1.20;;;16.40;99.90;;;;;;4231465;28;20044;-80
2023/08/08 07:02:53;;;;;;;6.53;1.25;;;16.50;99.90;;;;;;4230350;28;20101;-80
2023/08/08 07:04:54;;;;;;;3.35;0.80;;;16.50;99.90;;;;;;4231228;27;20123;-80
2023/08/08 07:06:54;;;;;;;7.50;1.33;;;16.60;99.90;;;;;;4212803;28;20054;-80
2023/08/08 07:08:55;;;;;;;4.47;0.90;;;16.70;99.90;;;;;;4230032;28;20097;-80
2023/08/08 07:10:57;;;;;;;2.90;0.52;;;16.80;99.90;;;;;;4229774;28;20120;-80
2023/08/08 07:12:58;;;;;;;4.47;0.50;;;16.80;99.90;;;;;;4229852;28;20131;-80
2023/08/08 07:14:59;;;;;;;4.30;0.80;;;16.90;99.90;;;;;;4231163;28;20059;-80
2023/08/08 07:17:03;;;;;;;3.60;0.80;;;16.90;99.90;;;;;;4229747;28;20114;-80
2023/08/08 07:19:05;;;;;;;2.95;0.95;;;17.00;99.90;;;;;;4230838;28;20044;-80
2023/08/08 07:21:06;;;;;;;2.58;0.63;;;17.10;99.90;;;;;;4230914;28;20047;-80
2023/08/08 07:23:07;;;;;;;10.00;1.88;;;17.10;99.90;;;;;;4231436;28;20043;-80
2023/08/08 07:25:08;;;;;;;4.47;0.70;;;17.30;99.90;;;;;;4230198;28;20107;-80
2023/08/08 07:27:09;;;;;;;5.07;0.95;;;17.20;99.90;;;;;;4230960;28;20090;-80
2023/08/08 07:29:11;;;;;;;5.65;1.25;;;17.30;99.90;;;;;;4231134;28;20048;-80
2023/08/08 07:31:11;;;;;;;6.22;1.13;;;17.50;99.90;;;;;;4230212;28;20054;-80
2023/08/08 07:33:13;;;;;;;5.13;0.68;;;17.50;99.90;;;;;;4233513;28;20103;-79
2023/08/08 07:35:15;;;;;;;2.13;0.55;;;17.60;99.90;;;;;;4238306;28;20126;-80
2023/08/08 07:37:15;;;;;;;4.03;0.70;;;17.50;99.90;;;;;;4230292;28;20475;-80
2023/08/08 07:39:16;;;;;;;4.78;0.70;;;17.50;99.90;;;;;;4230341;28;20042;-80
2023/08/08 07:41:18;;;;;;;2.20;0.38;;;17.50;99.90;;;;;;4229224;28;20044;-80
2023/08/08 07:43:20;;;;;;;8.05;0.60;;;17.60;99.90;;;;;;4229060;28;20207;-80
2023/08/08 07:45:21;;;;;;;6.75;0.80;;;17.70;99.90;;;;;;4229144;28;20043;-80
2023/08/08 07:47:21;;;;;;;8.93;1.02;;;17.70;99.90;;;;;;4229533;28;20039;-80
2023/08/08 07:49:22;;;;;;;3.70;0.50;;;17.80;99.90;;;;;;4229660;28;20069;-80
2023/08/08 07:51:23;;;;;;;5.78;0.70;;;17.70;99.90;;;;;;4230370;28;20059;-80
2023/08/08 07:53:24;;;;;;;2.63;0.80;;;17.70;99.90;;;;;;4212126;28;20051;-80
2023/08/08 07:55:24;;;;;;;4.20;0.75;;;17.80;99.90;;;;;;4230554;28;20047;-80
2023/08/08 07:57:27;;;;;;;2.78;0.65;;;17.80;99.90;;;;;;4229735;28;20154;-80
2023/08/08 07:59:28;;;;;;;5.90;1.10;;;17.80;99.90;;;;;;4229834;28;20043;-80
2023/08/08 08:01:29;;;;;;;4.45;0.88;;;17.80;99.90;;;;;;4230241;28;20044;-80
2023/08/08 08:03:30;;;;;;;2.63;0.60;;;17.60;99.90;;;;;;4230426;28;20403;-80
2023/08/08 08:05:31;;;;;;;4.47;1.08;;;17.50;99.90;;;;;;4230022;28;20036;-80
2023/08/08 08:07:32;;;;;;;5.70;1.30;;;17.50;99.90;;;;;;4211988;28;20056;-80
2023/08/08 08:09:33;;;;;;;5.32;0.70;;;17.60;99.90;;;;;;4229322;28;20051;-80
2023/08/08 08:11:33;;;;;;;5.25;0.60;;;17.70;99.90;;;;;;4230018;28;20457;-80
2023/08/08 08:13:34;;;;;;;4.43;0.73;;;17.80;99.90;;;;;;4212251;28;20497;-80
2023/08/08 08:15:35;;;;;;;3.70;0.75;;;17.80;99.90;;;;;;4229076;28;20040;-80
2023/08/08 08:17:35;;;;;;;5.15;1.02;;;17.80;99.90;;;;;;4230761;28;20059;-80
2023/08/08 08:19:36;;;;;;;10.75;1.08;;;17.80;99.90;;;;;;4228773;28;20202;-80
2023/08/08 08:21:37;;;;;;;3.08;0.52;;;17.90;99.90;;;;;;4229903;28;20509;-80
2023/08/08 08:23:37;;;;;;;7.13;1.45;;;18.00;99.90;;;;;;4229237;28;20039;-79
2023/08/08 08:25:38;;;;;;;3.85;1.30;;;18.00;99.90;;;;;;4229742;28;20216;-80
2023/08/08 08:27:39;;;;;;;2.42;0.50;;;17.90;99.90;;;;;;4228863;28;20610;-80
2023/08/08 08:29:40;;;;;;;4.82;0.63;;;17.80;99.90;;;;;;4228547;28;20491;-80
2023/08/08 08:31:40;;;;;;;3.60;0.65;;;17.80;99.90;;;;;;4228621;28;20071;-80
2023/08/08 08:33:41;;;;;;;1.65;0.35;;;17.80;99.90;;;;;;4228967;28;20548;-80
2023/08/08 08:35:42;;;;;;;5.00;1.08;;;17.70;99.90;;;;;;4211575;28;20044;-80
2023/08/08 08:37:42;;;;;;;2.63;0.65;;;17.80;99.90;;;;;;4230265;28;20054;-80
2023/08/08 08:39:44;;;;;;;4.90;1.30;;;17.70;99.90;;;;;;4230260;28;20491;-80
2023/08/08 08:41:48;;;;;;;3.38;0.68;;;17.60;99.90;;;;;;4228047;28;20154;-80
2023/08/08 08:43:50;;;;;;;4.18;0.80;;;17.50;99.90;;;;;;4213556;28;20048;-80
2023/08/08 08:45:53;;;;;;;8.20;1.23;;;17.40;99.90;;;;;;4231853;28;20096;-80
2023/08/08 08:47:57;;;;;;;5.55;0.75;;;17.30;99.90;;;;;;4232429;28;20085;-80
2023/08/08 08:49:58;;;;;;;4.60;0.80;;;17.10;99.90;;;;;;4232413;28;20407;-80
2023/08/08 08:52:04;;;;;;;3.42;0.90;;;17.00;99.90;;;;;;4215174;28;20048;-80
2023/08/08 08:54:05;;;;;;;3.00;0.75;;;16.90;99.90;;;;;;4214809;28;20075;-80
2023/08/08 08:56:06;;;;;;;2.72;1.17;;;16.90;99.90;;;;;;4233080;28;20471;-80
2023/08/08 08:58:09;;;;;;;2.20;0.50;;;17.20;99.90;;;;;;4233338;28;20505;-80
2023/08/08 09:00:10;;;;;;;3.05;0.70;;;17.40;99.90;;;;;;4231992;28;20090;-80
2023/08/08 09:02:12;;;;;;;6.75;0.70;;;17.70;99.90;;;;;;4231318;28;20039;-80
2023/08/08 09:04:16;;;;;;;3.47;0.70;;;17.60;99.90;;;;;;4232005;28;20564;-80
2023/08/08 09:06:19;;;;;;;2.83;0.70;;;17.60;99.90;;;;;;4232825;28;20043;-80
2023/08/08 09:08:19;;;;;;;2.33;0.60;;;17.50;99.90;;;;;;4231914;28;20083;-80
2023/08/08 09:10:21;;;;;;;1.30;0.55;;;17.50;99.90;;;;;;4231955;28;20073;-80
2023/08/08 09:12:23;;;;;;;4.45;1.02;;;17.80;99.90;;;;;;4231192;28;20060;-80
2023/08/08 09:14:26;;;;;;;5.32;0.70;;;18.10;99.90;;;;;;4232310;28;20419;-80
2023/08/08 09:16:27;;;;;;;6.10;0.80;;;18.40;99.90;;;;;;4232964;28;20051;-80
2023/08/08 09:18:28;;;;;;;7.10;0.90;;;18.40;99.90;;;;;;4233043;28;20483;-80
2023/08/08 09:20:29;;;;;;;3.88;0.80;;;18.40;99.90;;;;;;4231435;28;20048;-80
2023/08/08 09:22:29;;;;;;;7.22;1.25;;;18.30;99.90;;;;;;4232472;28;20042;-80
2023/08/08 09:24:30;;;;;;;4.57;0.70;;;18.30;99.90;;;;;;4232896;28;20482;-80
2023/08/08 09:26:31;;;;;;;6.03;0.85;;;18.50;99.90;;;;;;4232971;28;20051;-79
2023/08/08 09:28:32;;;;;;;6.00;0.80;;;18.70;99.90;;;;;;4233360;28;20071;-79
2023/08/08 09:30:33;;;;;;;2.05;0.52;;;18.90;99.90;;;;;;4232610;28;20084;-79
2023/08/08 09:32:33;;;;;;;3.38;0.93;;;19.10;99.90;;;;;;4214660;28;20047;-80
2023/08/08 09:34:34;;;;;;;7.82;0.93;;;19.20;99.90;;;;;;4231238;28;20596;-80
2023/08/08 09:36:36;;;;;;;5.28;1.63;;;19.50;99.90;;;;;;4232157;28;20050;-80
2023/08/08 09:38:37;;;;;;;4.32;0.85;;;19.90;99.90;;;;;;4231621;28;20052;-80
2023/08/08 09:40:39;;;;;;;6.45;0.60;;;20.00;99.90;;;;;;4232429;28;20092;-79
2023/08/08 09:42:41;;;;;;;2.83;0.90;;;20.30;99.90;;;;;;4232775;28;20036;-80
2023/08/08 09:44:42;;;;;;;4.53;0.45;;;19.70;99.90;;;;;;4214240;28;20054;-80
2023/08/08 09:46:43;;;;;;;5.65;0.88;;;19.40;99.90;;;;;;4230636;28;20086;-80
2023/08/08 09:48:45;;;;;;;2.45;0.90;;;19.30;99.90;;;;;;4232543;28;20044;-80
2023/08/08 09:50:46;;;;;;;2.55;0.70;;;19.10;99.90;;;;;;4230985;28;20142;-80
2023/08/08 09:52:47;;;;;;;3.30;0.60;;;19.00;99.90;;;;;;4231314;28;20040;-80
2023/08/08 09:54:49;;;;;;;2.22;0.75;;;19.00;99.90;;;;;;4230848;28;20454;-80
2023/08/08 09:56:51;;;;;;;4.72;0.65;;;18.90;99.90;;;;;;4232042;28;20058;-80
2023/08/08 09:58:52;;;;;;;4.50;0.70;;;18.80;99.90;;;;;;4230653;28;20059;-80
2023/08/08 10:00:53;;;;;;;3.67;0.50;;;18.70;99.90;;;;;;4230446;28;20124;-80
2023/08/08 10:02:54;;;;;;;3.22;0.70;;;18.60;99.90;;;;;;4230669;28;20467;-80
2023/08/08 10:04:58;;;;;;;2.65;0.70;;;18.40;99.90;;;;;;4231047;28;20043;-80
2023/08/08 10:06:58;;;;;;;4.15;1.00;;;18.20;99.90;;;;;;4232122;28;20539;-80
2023/08/08 10:09:01;;;;;;;2.20;0.57;;;18.00;99.90;;;;;;4230621;28;20041;-80
2023/08/08 10:11:02;;;;;;;3.03;0.55;;;17.80;99.90;;;;;;4230914;28;20125;-79
2023/08/08 10:13:07;;;;;;;3.30;0.60;;;17.60;99.90;;;;;;4231472;28;20154;-79
2023/08/08 10:15:09;;;;;;;1.95;0.50;;;17.40;99.90;;;;;;4232196;28;20043;-79
2023/08/08 10:17:14;;;;;;;1.77;0.47;;;17.20;99.90;;;;;;4230473;28;20106;-80
2023/08/08 10:19:22;;;;;;;3.17;0.52;;;17.00;99.90;;;;;;4231919;28;20093;-79
2023/08/08 10:21:24;;;;;;;2.75;0.43;;;16.90;99.90;;;;;;4230363;28;20549;-80
2023/08/08 10:23:24;;;;;;;4.60;1.02;;;16.90;99.90;;;;;;4230331;28;20051;-80
2023/08/08 10:25:27;;;;;;;3.90;0.63;;;17.00;99.90;;;;;;4230469;28;20081;-80
2023/08/08 10:27:32;;;;;;;4.43;0.70;;;17.30;99.90;;;;;;4230406;28;20040;-80
2023/08/08 10:29:33;;;;;;;3.65;0.90;;;17.60;99.90;;;;;;4213797;28;20416;-80
2023/08/08 10:31:35;;;;;;;7.03;0.80;;;18.00;99.90;;;;;;4231495;28;20046;-79